Time;durP1;ratioP1;P1;durP2;ratioP2;P2;SDS_P1;SDS_P2;PMS_P1;PMS_P2;Temp;Humidity;BMP_temperature;BMP_pressure;BME280_temperature;BME280_humidity;BME280_pressure;Samples;Min_cycle;Max_cycle;Signal;HPM_P1;HPM_P2
2022/08/31 08:12:05;;;;;;;13.40;12.40;;;29.70;99.90;;;;;;5296874;23;20322;-84
2022/08/31 08:14:58;;;;;;;14.05;12.82;;;29.80;99.90;;;;;;4876897;29;20056;-83
2022/08/31 08:17:46;;;;;;;12.27;11.45;;;29.90;99.90;;;;;;4890258;29;20035;-83
2022/08/31 08:20:14;;;;;;;13.25;12.10;;;30.60;99.90;;;;;;4873103;29;20029;-84
2022/08/31 08:22:42;;;;;;;12.57;11.57;;;30.80;99.90;;;;;;4870841;29;20032;-84
2022/08/31 08:25:28;;;;;;;12.35;11.50;;;30.60;99.90;;;;;;4872299;29;20076;-83
2022/08/31 08:28:27;;;;;;;13.38;12.20;;;30.60;99.90;;;;;;4866141;29;20042;-84
2022/08/31 08:30:59;;;;;;;12.50;11.52;;;30.50;99.90;;;;;;4863100;29;20025;-84
2022/08/31 08:33:32;;;;;;;13.40;12.32;;;30.70;99.90;;;;;;4864954;29;20041;-84
2022/08/31 08:36:02;;;;;;;12.35;11.63;;;31.00;99.90;;;;;;4848154;29;20030;-84
2022/08/31 08:38:30;;;;;;;12.88;12.07;;;30.90;99.90;;;;;;4870008;29;20045;-84
2022/08/31 08:41:06;;;;;;;13.77;12.57;;;31.00;99.90;;;;;;4854739;29;20151;-84
2022/08/31 08:43:37;;;;;;;14.00;12.80;;;30.70;99.90;;;;;;4862231;29;20487;-85
2022/08/31 08:46:08;;;;;;;12.80;11.73;;;30.40;99.90;;;;;;4846658;29;20563;-85
2022/08/31 08:48:38;;;;;;;12.93;12.02;;;30.70;99.90;;;;;;4847042;29;20504;-85
2022/08/31 08:51:17;;;;;;;13.38;12.48;;;30.90;99.90;;;;;;4862196;29;20491;-85
2022/08/31 08:54:12;;;;;;;14.00;12.73;;;30.40;99.90;;;;;;4861985;29;20504;-85
2022/08/31 08:56:46;;;;;;;13.82;12.57;;;29.90;99.90;;;;;;4862306;29;20463;-84
2022/08/31 08:59:17;;;;;;;12.48;11.45;;;29.40;99.90;;;;;;4863051;29;20114;-86
2022/08/31 09:01:48;;;;;;;13.68;12.45;;;29.40;99.90;;;;;;4846865;29;20106;-84
2022/08/31 09:04:35;;;;;;;14.57;12.52;;;29.70;99.90;;;;;;4862228;29;20513;-86
2022/08/31 09:07:25;;;;;;;14.13;12.98;;;30.30;99.90;;;;;;4866061;29;20092;-85
2022/08/31 09:10:21;;;;;;;14.38;13.25;;;30.50;99.90;;;;;;4870364;29;20042;-83
2022/08/31 09:13:00;;;;;;;15.80;12.30;;;30.10;99.90;;;;;;4854473;29;20113;-84
2022/08/31 09:15:34;;;;;;;13.18;12.20;;;30.10;99.90;;;;;;4869569;29;20115;-84
2022/08/31 09:18:31;;;;;;;12.27;11.38;;;30.20;99.90;;;;;;4870359;29;20399;-84
2022/08/31 09:21:28;;;;;;;12.70;11.77;;;30.70;99.90;;;;;;4869748;29;20506;-83
2022/08/31 09:24:15;;;;;;;12.70;11.73;;;30.50;99.90;;;;;;4870014;29;20444;-83
2022/08/31 09:27:19;;;;;;;12.30;11.30;;;30.20;99.90;;;;;;4869816;29;20033;-83
2022/08/31 09:29:52;;;;;;;13.68;11.60;;;30.40;99.90;;;;;;4870631;29;20128;-84
2022/08/31 09:32:23;;;;;;;;;;;30.30;99.90;;;;;;4870969;29;20040;-83
2022/08/31 09:34:59;;;;;;;12.38;11.57;;;30.20;99.90;;;;;;4867451;29;19916;-83
2022/08/31 09:37:47;;;;;;;11.88;11.00;;;30.00;99.90;;;;;;4861366;29;20040;-84
2022/08/31 09:40:43;;;;;;;14.18;13.07;;;30.50;99.90;;;;;;4861905;29;20054;-84
2022/08/31 09:43:21;;;;;;;13.95;12.95;;;30.20;99.90;;;;;;4862226;29;20078;-84
2022/08/31 09:46:07;;;;;;;14.30;13.20;;;30.20;99.90;;;;;;4861583;29;20037;-91
2022/08/31 09:48:50;;;;;;;13.88;12.52;;;30.20;99.90;;;;;;4860921;29;20033;-80
2022/08/31 09:51:34;;;;;;;13.73;12.52;;;30.20;99.90;;;;;;4860772;29;20041;-80
2022/08/31 09:57:09;;;;;;;13.82;12.55;;;30.60;99.90;;;;;;4862358;29;20100;-80
2022/08/31 09:59:50;;;;;;;13.07;12.27;;;30.60;99.90;;;;;;4861070;29;20395;-80
2022/08/31 10:02:25;;;;;;;14.40;13.30;;;30.20;99.90;;;;;;4860688;29;20036;-80
2022/08/31 10:04:55;;;;;;;14.27;12.88;;;30.10;99.90;;;;;;4862146;29;20116;-80
2022/08/31 10:07:27;;;;;;;14.45;13.32;;;30.20;99.90;;;;;;4860771;29;20424;-80
2022/08/31 10:09:59;;;;;;;14.73;13.63;;;30.60;99.90;;;;;;4860782;29;20037;-80
2022/08/31 10:12:37;;;;;;;15.20;13.90;;;31.00;99.90;;;;;;4860426;29;20049;-80
2022/08/31 10:15:49;;;;;;;14.63;13.50;;;31.20;99.90;;;;;;4860668;29;20052;-80
2022/08/31 10:18:21;;;;;;;15.13;14.10;;;31.40;99.90;;;;;;4807097;29;20026;-80
2022/08/31 10:21:20;;;;;;;14.65;13.65;;;31.70;99.90;;;;;;4795695;29;20436;-81
2022/08/31 10:23:57;;;;;;;14.25;13.27;;;30.90;99.90;;;;;;4812745;29;20047;-81
2022/08/31 10:26:33;;;;;;;14.93;14.00;;;31.00;99.90;;;;;;4804969;29;20665;-81
2022/08/31 10:29:05;;;;;;;15.70;14.65;;;31.40;99.90;;;;;;4806707;29;20051;-81
2022/08/31 10:31:43;;;;;;;14.60;13.38;;;31.60;99.90;;;;;;4806426;29;20039;-81
2022/08/31 10:37:24;;;;;;;14.10;12.90;;;31.00;99.90;;;;;;4789751;29;20047;-82
2022/08/31 10:40:16;;;;;;;16.77;14.32;;;30.60;99.90;;;;;;4789818;29;20396;-82
2022/08/31 10:42:58;;;;;;;13.75;12.90;;;30.60;99.90;;;;;;4804929;29;20042;-81
2022/08/31 10:45:28;;;;;;;14.18;13.05;;;30.60;99.90;;;;;;4804714;29;20579;-81
2022/08/31 10:47:58;;;;;;;14.55;13.32;;;30.90;99.90;;;;;;4810668;29;20195;-83
2022/08/31 10:51:04;;;;;;;14.57;13.57;;;31.50;99.90;;;;;;4845165;29;20090;-83
2022/08/31 10:53:52;;;;;;;15.40;14.18;;;31.80;99.90;;;;;;4859852;29;20129;-82
2022/08/31 10:56:22;;;;;;;14.60;13.48;;;31.50;99.90;;;;;;4860400;29;20110;-82
2022/08/31 10:59:26;;;;;;;14.93;13.90;;;31.30;99.90;;;;;;4860379;29;20407;-82
2022/08/31 11:02:02;;;;;;;14.75;13.60;;;31.10;99.90;;;;;;4814333;29;20046;-82
2022/08/31 11:04:47;;;;;;;15.00;13.90;;;31.40;99.90;;;;;;4860776;29;20152;-86
2022/08/31 11:07:35;;;;;;;15.05;14.07;;;31.80;99.90;;;;;;4860848;29;20102;-87
2022/08/31 11:10:18;;;;;;;15.38;14.45;;;32.10;99.90;;;;;;4860776;29;20089;-88
2022/08/31 11:12:56;;;;;;;14.18;13.38;;;32.20;99.90;;;;;;4860568;29;20046;-88
2022/08/31 11:15:42;;;;;;;15.27;14.15;;;31.40;99.90;;;;;;4861265;29;20033;-89
2022/08/31 11:18:52;;;;;;;14.18;13.15;;;31.30;99.90;;;;;;4861076;29;20184;-89
2022/08/31 11:21:52;;;;;;;14.80;13.90;;;31.10;99.90;;;;;;4860060;29;20104;-82
2022/08/31 11:24:31;;;;;;;15.05;14.10;;;31.00;99.90;;;;;;4859969;29;20044;-81
2022/08/31 11:27:22;;;;;;;14.60;13.70;;;31.00;99.90;;;;;;4859974;29;20034;-82
2022/08/31 11:29:57;;;;;;;15.77;14.30;;;31.10;99.90;;;;;;4860920;29;20511;-82
2022/08/31 11:32:50;;;;;;;15.15;14.27;;;31.20;99.90;;;;;;4859753;29;20034;-82
2022/08/31 11:35:48;;;;;;;15.07;13.98;;;31.00;99.90;;;;;;4859961;29;20026;-82
2022/08/31 11:38:50;;;;;;;14.70;13.90;;;31.10;99.90;;;;;;4875245;29;20112;-82
2022/08/31 11:41:38;;;;;;;14.88;13.98;;;31.10;99.90;;;;;;4878975;29;20457;-79
2022/08/31 11:44:07;;;;;;;15.35;14.27;;;31.00;99.90;;;;;;4878928;29;20041;-78
2022/08/31 11:46:35;;;;;;;15.43;14.32;;;31.00;99.90;;;;;;4882889;29;20081;-80
2022/08/31 11:49:19;;;;;;;;;;;;;;;;;;;;;
2022/08/31 12:39:56;;;;;;;15.60;14.60;;;31.50;99.90;;;;;;5650106;23;20052;-93
2022/08/31 12:46:57;;;;;;;;;;;;;;;;;;;;;
2022/08/31 12:50:15;;;;;;;14.77;13.85;;;30.70;99.90;;;;;;4794896;29;20035;-93
2022/08/31 14:08:35;;;;;;;16.20;15.20;;;30.90;99.90;;;;;;4863262;29;20054;-92
2022/08/31 14:11:13;;;;;;;16.50;15.43;;;31.00;99.90;;;;;;4848510;29;20044;-94
2022/08/31 14:13:52;;;;;;;15.85;14.75;;;30.80;99.90;;;;;;4848909;29;20036;-93
2022/08/31 14:16:40;;;;;;;15.60;14.50;;;30.60;99.90;;;;;;4868852;23;20460;-95
2022/08/31 14:42:28;;;;;;;15.18;14.27;;;30.40;99.90;;;;;;893270;23;20335;-93
2022/08/31 14:59:51;;;;;;;15.60;14.52;;;30.30;99.90;;;;;;5168107;23;20056;-93
2022/08/31 15:06:10;;;;;;;15.15;14.15;;;30.30;99.90;;;;;;4882622;29;20116;-94
2022/08/31 15:08:37;;;;;;;14.93;13.93;;;30.30;99.90;;;;;;4880712;29;20039;-91
2022/08/31 15:11:05;;;;;;;15.00;14.10;;;30.30;99.90;;;;;;4864684;29;20041;-91
2022/08/31 15:13:32;;;;;;;15.38;14.13;;;29.90;99.90;;;;;;4882006;29;20040;-95
2022/08/31 15:24:39;;;;;;;14.68;13.80;;;29.90;99.90;;;;;;4831829;29;20079;-94
2022/08/31 15:27:11;;;;;;;14.68;13.80;;;30.10;99.90;;;;;;4831905;29;20128;-93
2022/08/31 15:29:46;;;;;;;14.43;13.48;;;29.90;99.90;;;;;;4857227;29;20038;-93
2022/08/31 15:32:16;;;;;;;14.48;13.48;;;29.90;99.90;;;;;;4835502;29;20111;-93
2022/08/31 15:34:48;;;;;;;15.07;14.00;;;29.90;99.90;;;;;;4831101;29;20080;-91
2022/08/31 15:37:18;;;;;;;14.27;13.27;;;29.80;99.90;;;;;;4831062;29;20026;-95
2022/08/31 15:39:47;;;;;;;14.02;13.27;;;29.80;99.90;;;;;;4830339;29;20492;-95
2022/08/31 15:42:21;;;;;;;15.07;13.95;;;29.70;99.90;;;;;;4830763;29;20065;-92
2022/08/31 15:53:28;;;;;;;14.15;13.07;;;29.50;99.90;;;;;;5390247;23;20045;-94
2022/08/31 16:10:36;;;;;;;13.50;12.50;;;29.30;99.90;;;;;;5751275;23;20349;-94
2022/08/31 16:13:08;;;;;;;13.32;12.63;;;29.20;99.90;;;;;;4869681;29;20038;-91
2022/08/31 16:15:35;;;;;;;13.15;12.35;;;29.20;99.90;;;;;;4885205;29;20033;-92
2022/08/31 16:18:04;;;;;;;13.63;12.82;;;29.20;99.90;;;;;;4885077;29;20032;-92
2022/08/31 16:20:33;;;;;;;13.80;12.98;;;29.00;99.90;;;;;;4869836;29;20024;-94
2022/08/31 16:22:59;;;;;;;13.85;12.95;;;29.00;99.90;;;;;;4869335;29;20056;-91
2022/08/31 16:25:29;;;;;;;13.30;12.65;;;28.90;99.90;;;;;;4884353;29;20047;-93
2022/08/31 16:32:10;;;;;;;13.52;12.50;;;28.80;99.90;;;;;;5054025;23;20048;-92
2022/08/31 16:43:19;;;;;;;13.02;12.20;;;28.60;99.90;;;;;;5005713;23;20055;-95
2022/08/31 16:45:46;;;;;;;13.68;12.82;;;28.50;99.90;;;;;;4873461;29;20066;-92
2022/08/31 16:51:01;;;;;;;12.85;12.13;;;28.30;99.90;;;;;;4951296;23;20379;-94
2022/08/31 16:53:28;;;;;;;13.60;12.73;;;28.20;99.90;;;;;;4867239;29;20136;-94
2022/08/31 16:56:01;;;;;;;12.95;12.13;;;28.20;99.90;;;;;;4851667;29;20040;-94
2022/08/31 16:58:37;;;;;;;13.15;12.25;;;28.10;99.90;;;;;;4866425;29;20509;-94
2022/08/31 17:01:12;;;;;;;13.57;12.57;;;27.90;99.90;;;;;;4866505;29;20472;-94
2022/08/31 17:03:45;;;;;;;12.95;12.15;;;27.90;99.90;;;;;;4853150;29;20033;-92
2022/08/31 17:06:29;;;;;;;13.48;12.57;;;27.80;99.90;;;;;;4867099;29;20045;-93
2022/08/31 17:10:20;;;;;;;13.20;12.25;;;27.80;99.90;;;;;;4882103;23;20111;-93
2022/08/31 17:12:49;;;;;;;13.23;12.30;;;27.70;99.90;;;;;;4900618;29;20080;-93
2022/08/31 17:15:41;;;;;;;13.38;12.48;;;27.60;99.90;;;;;;4874599;29;20040;-92
2022/08/31 17:18:10;;;;;;;13.98;13.07;;;27.50;99.90;;;;;;4886295;29;20044;-93
2022/08/31 17:20:46;;;;;;;13.52;12.70;;;27.40;99.90;;;;;;4874807;23;20075;-91
2022/08/31 17:34:33;;;;;;;12.85;12.10;;;27.20;99.90;;;;;;4897678;29;20052;-93
2022/08/31 21:39:35;;;;;;;12.68;8.02;;;23.60;99.90;;;;;;5965136;23;19937;-92
2022/08/31 21:45:33;;;;;;;10.57;7.97;;;23.50;99.90;;;;;;5041832;23;20072;-94
2022/08/31 21:48:11;;;;;;;12.07;8.43;;;23.50;99.90;;;;;;4852723;29;20055;-93
2022/08/31 21:50:49;;;;;;;15.23;8.50;;;23.40;99.90;;;;;;4865789;29;20034;-93
2022/08/31 21:53:28;;;;;;;14.85;8.68;;;23.40;99.90;;;;;;4853036;29;20052;-93
2022/08/31 21:56:45;;;;;;;11.68;8.15;;;23.30;99.90;;;;;;4862326;29;20054;-92
2022/08/31 21:59:34;;;;;;;13.98;7.68;;;23.40;99.90;;;;;;4781378;30;20080;-93
2022/08/31 22:05:37;;;;;;;10.75;8.27;;;23.30;99.90;;;;;;5066510;23;19907;-94
2022/08/31 22:08:17;;;;;;;14.35;8.70;;;23.20;99.90;;;;;;4874022;29;20016;-93
2022/08/31 22:11:22;;;;;;;13.93;8.40;;;23.30;99.90;;;;;;4922413;23;20087;-94
2022/08/31 22:14:11;;;;;;;11.80;8.55;;;23.30;99.90;;;;;;4905604;23;20045;-94
2022/08/31 22:22:43;;;;;;;14.30;9.73;;;23.20;99.90;;;;;;5081792;23;20048;-94
2022/08/31 22:25:29;;;;;;;13.18;8.60;;;23.20;99.90;;;;;;4864070;29;20137;-94
2022/08/31 22:28:13;;;;;;;15.07;9.18;;;23.20;99.90;;;;;;4796308;29;20061;-94
2022/08/31 22:42:01;;;;;;;;;;;;;;;;;;;;;
2022/08/31 22:44:57;;;;;;;13.05;9.57;;;23.10;99.90;;;;;;5253538;23;20112;-94
2022/08/31 22:47:38;;;;;;;13.38;9.15;;;23.00;99.90;;;;;;4899771;29;20063;-94
2022/08/31 22:50:07;;;;;;;16.17;9.75;;;23.00;99.90;;;;;;4895676;29;20035;-94
2022/08/31 22:52:35;;;;;;;15.90;9.70;;;22.90;99.90;;;;;;4894162;29;20024;-94
2022/08/31 22:55:04;;;;;;;14.23;9.38;;;23.00;99.90;;;;;;4880050;29;20043;-93
2022/08/31 22:57:38;;;;;;;13.70;9.15;;;23.00;99.90;;;;;;4880745;29;20035;-93
2022/08/31 23:00:13;;;;;;;16.88;10.10;;;23.00;99.90;;;;;;4897955;29;20032;-94
2022/08/31 23:02:43;;;;;;;14.15;9.18;;;23.00;99.90;;;;;;4895045;29;20033;-94
2022/08/31 23:05:14;;;;;;;12.30;8.55;;;23.00;99.90;;;;;;4877582;29;20055;-94
2022/08/31 23:07:42;;;;;;;11.00;9.18;;;23.00;99.90;;;;;;4895691;29;20037;-95
2022/08/31 23:10:15;;;;;;;12.57;8.23;;;22.90;99.90;;;;;;4881037;29;20025;-94
2022/08/31 23:12:45;;;;;;;13.23;9.30;;;23.00;99.90;;;;;;4897056;29;20037;-94
2022/08/31 23:15:14;;;;;;;16.85;10.38;;;23.00;99.90;;;;;;4896167;29;20297;-93
2022/08/31 23:17:52;;;;;;;13.57;9.38;;;23.10;99.90;;;;;;4885321;29;20059;-94
2022/08/31 23:20:23;;;;;;;12.35;8.52;;;23.20;99.90;;;;;;4899859;29;20092;-93
2022/08/31 23:22:52;;;;;;;10.38;8.38;;;23.20;99.90;;;;;;4883446;29;20040;-94
2022/08/31 23:25:22;;;;;;;14.13;9.13;;;23.30;99.90;;;;;;4867748;29;20112;-94
2022/08/31 23:27:51;;;;;;;15.15;9.73;;;23.20;99.90;;;;;;4879362;29;20040;-94
2022/08/31 23:30:20;;;;;;;13.52;9.13;;;23.30;99.90;;;;;;4896176;29;20036;-94
2022/08/31 23:32:47;;;;;;;17.83;8.55;;;23.30;99.90;;;;;;4881181;29;20096;-93
2022/08/31 23:35:21;;;;;;;12.80;8.90;;;23.30;99.90;;;;;;4897457;29;20072;-93
2022/08/31 23:37:51;;;;;;;12.60;8.77;;;23.20;99.90;;;;;;4903336;29;20040;-94
2022/08/31 23:40:18;;;;;;;10.23;8.35;;;23.20;99.90;;;;;;4888498;29;20051;-93
2022/08/31 23:43:24;;;;;;;11.07;8.27;;;23.10;99.90;;;;;;4892529;29;20036;-95
2022/08/31 23:46:00;;;;;;;12.00;7.75;;;23.10;99.90;;;;;;4884900;29;20056;-94
2022/08/31 23:48:33;;;;;;;14.05;9.27;;;23.10;99.90;;;;;;4884920;29;20029;-94
2022/08/31 23:51:05;;;;;;;11.55;8.30;;;23.00;99.90;;;;;;4862450;29;20074;-93
2022/08/31 23:53:33;;;;;;;14.75;9.55;;;23.00;99.90;;;;;;4851677;29;20044;-94
2022/08/31 23:56:09;;;;;;;13.55;8.93;;;23.00;99.90;;;;;;4851627;29;20037;-94
2022/08/31 23:58:42;;;;;;;17.17;9.82;;;23.00;99.90;;;;;;4850750;29;20066;-94
